sensor_id;sensor_type;location;lat;lon;timestamp;temperature;humidity
12408;DHT22;6268;48.188;17.134;2023-07-28T00:00:29;21.60;99.50
12408;DHT22;6268;48.188;17.134;2023-07-28T00:02:58;21.60;99.40
12408;DHT22;6268;48.188;17.134;2023-07-28T00:05:28;21.60;98.80
12408;DHT22;6268;48.188;17.134;2023-07-28T00:07:57;21.60;99.30
12408;DHT22;6268;48.188;17.134;2023-07-28T00:10:25;21.60;98.80
12408;DHT22;6268;48.188;17.134;2023-07-28T00:12:54;21.60;99.00
12408;DHT22;6268;48.188;17.134;2023-07-28T00:15:24;21.40;99.70
12408;DHT22;6268;48.188;17.134;2023-07-28T00:17:53;21.40;99.90
12408;DHT22;6268;48.188;17.134;2023-07-28T00:20:22;21.40;99.90
12408;DHT22;6268;48.188;17.134;2023-07-28T00:22:52;21.40;99.90
12408;DHT22;6268;48.188;17.134;2023-07-28T00:25:20;21.40;99.90
12408;DHT22;6268;48.188;17.134;2023-07-28T00:27:49;21.30;99.90
12408;DHT22;6268;48.188;17.134;2023-07-28T00:30:18;21.30;99.90
12408;DHT22;6268;48.188;17.134;2023-07-28T00:32:47;21.30;99.90
12408;DHT22;6268;48.188;17.134;2023-07-28T00:35:16;21.30;99.90
12408;DHT22;6268;48.188;17.134;2023-07-28T00:37:44;21.30;99.90
12408;DHT22;6268;48.188;17.134;2023-07-28T00:40:14;21.20;99.90
12408;DHT22;6268;48.188;17.134;2023-07-28T00:42:43;21.20;99.90
12408;DHT22;6268;48.188;17.134;2023-07-28T00:45:12;21.20;99.90
12408;DHT22;6268;48.188;17.134;2023-07-28T00:47:41;21.20;99.90
12408;DHT22;6268;48.188;17.134;2023-07-28T00:50:11;21.20;99.90
12408;DHT22;6268;48.188;17.134;2023-07-28T00:52:40;21.20;99.90
12408;DHT22;6268;48.188;17.134;2023-07-28T00:55:10;21.20;99.90
12408;DHT22;6268;48.188;17.134;2023-07-28T00:57:40;21.20;99.90
12408;DHT22;6268;48.188;17.134;2023-07-28T01:00:10;21.10;99.90
12408;DHT22;6268;48.188;17.134;2023-07-28T01:02:40;21.10;99.90
12408;DHT22;6268;48.188;17.134;2023-07-28T01:05:08;21.00;99.90
12408;DHT22;6268;48.188;17.134;2023-07-28T01:07:43;21.00;99.90
12408;DHT22;6268;48.188;17.134;2023-07-28T01:10:24;21.00;99.90
12408;DHT22;6268;48.188;17.134;2023-07-28T01:12:58;20.90;99.90
12408;DHT22;6268;48.188;17.134;2023-07-28T01:15:27;21.00;99.90
12408;DHT22;6268;48.188;17.134;2023-07-28T01:17:55;21.10;99.90
12408;DHT22;6268;48.188;17.134;2023-07-28T01:20:29;21.10;99.90
12408;DHT22;6268;48.188;17.134;2023-07-28T01:23:08;21.00;99.90
12408;DHT22;6268;48.188;17.134;2023-07-28T01:25:47;21.00;99.90
12408;DHT22;6268;48.188;17.134;2023-07-28T01:28:23;21.00;99.90
12408;DHT22;6268;48.188;17.134;2023-07-28T01:30:52;21.00;99.90
12408;DHT22;6268;48.188;17.134;2023-07-28T01:33:21;20.90;99.90
12408;DHT22;6268;48.188;17.134;2023-07-28T01:35:50;20.90;99.90
12408;DHT22;6268;48.188;17.134;2023-07-28T01:38:19;20.90;99.90
12408;DHT22;6268;48.188;17.134;2023-07-28T01:40:48;21.00;99.90
12408;DHT22;6268;48.188;17.134;2023-07-28T01:43:16;21.00;99.90
12408;DHT22;6268;48.188;17.134;2023-07-28T01:45:46;21.10;99.90
12408;DHT22;6268;48.188;17.134;2023-07-28T01:48:15;21.00;99.90
12408;DHT22;6268;48.188;17.134;2023-07-28T01:50:44;21.00;99.90
12408;DHT22;6268;48.188;17.134;2023-07-28T01:53:12;21.00;99.90
12408;DHT22;6268;48.188;17.134;2023-07-28T01:55:41;21.00;99.90
12408;DHT22;6268;48.188;17.134;2023-07-28T01:58:10;20.90;99.90
12408;DHT22;6268;48.188;17.134;2023-07-28T02:00:38;20.90;99.90
12408;DHT22;6268;48.188;17.134;2023-07-28T02:03:08;21.00;99.90
12408;DHT22;6268;48.188;17.134;2023-07-28T02:05:37;21.00;99.90
12408;DHT22;6268;48.188;17.134;2023-07-28T02:08:06;20.90;99.90
12408;DHT22;6268;48.188;17.134;2023-07-28T02:10:34;20.80;99.90
12408;DHT22;6268;48.188;17.134;2023-07-28T02:13:03;20.80;99.90
12408;DHT22;6268;48.188;17.134;2023-07-28T02:15:32;20.80;99.90
12408;DHT22;6268;48.188;17.134;2023-07-28T02:18:01;20.80;99.90
12408;DHT22;6268;48.188;17.134;2023-07-28T02:20:31;20.80;99.90
12408;DHT22;6268;48.188;17.134;2023-07-28T02:23:01;20.80;99.90
12408;DHT22;6268;48.188;17.134;2023-07-28T02:25:30;20.70;99.90
12408;DHT22;6268;48.188;17.134;2023-07-28T02:27:59;20.70;99.90
12408;DHT22;6268;48.188;17.134;2023-07-28T02:30:27;20.80;99.90
12408;DHT22;6268;48.188;17.134;2023-07-28T02:32:56;20.70;99.90
12408;DHT22;6268;48.188;17.134;2023-07-28T02:35:25;20.70;99.90
12408;DHT22;6268;48.188;17.134;2023-07-28T02:37:55;20.60;99.90
12408;DHT22;6268;48.188;17.134;2023-07-28T02:40:24;20.60;99.90
12408;DHT22;6268;48.188;17.134;2023-07-28T02:42:52;20.50;99.90
12408;DHT22;6268;48.188;17.134;2023-07-28T02:45:21;20.50;99.90
12408;DHT22;6268;48.188;17.134;2023-07-28T02:47:50;20.50;99.90
12408;DHT22;6268;48.188;17.134;2023-07-28T02:50:19;20.60;99.90
12408;DHT22;6268;48.188;17.134;2023-07-28T02:52:48;20.50;99.90
12408;DHT22;6268;48.188;17.134;2023-07-28T02:55:18;20.40;99.90
12408;DHT22;6268;48.188;17.134;2023-07-28T02:57:47;20.30;99.90
12408;DHT22;6268;48.188;17.134;2023-07-28T03:00:15;20.30;99.90
12408;DHT22;6268;48.188;17.134;2023-07-28T03:02:44;20.20;99.90
12408;DHT22;6268;48.188;17.134;2023-07-28T03:05:13;20.30;99.90
12408;DHT22;6268;48.188;17.134;2023-07-28T03:07:42;20.30;99.90
12408;DHT22;6268;48.188;17.134;2023-07-28T03:10:11;20.20;99.90
12408;DHT22;6268;48.188;17.134;2023-07-28T03:12:44;20.20;99.90
12408;DHT22;6268;48.188;17.134;2023-07-28T03:15:13;20.20;99.90
12408;DHT22;6268;48.188;17.134;2023-07-28T03:17:42;20.20;99.90
12408;DHT22;6268;48.188;17.134;2023-07-28T03:20:11;20.10;99.90
12408;DHT22;6268;48.188;17.134;2023-07-28T03:22:40;20.10;99.90
12408;DHT22;6268;48.188;17.134;2023-07-28T03:25:09;20.10;99.90
12408;DHT22;6268;48.188;17.134;2023-07-28T03:27:37;20.10;99.90
12408;DHT22;6268;48.188;17.134;2023-07-28T03:30:08;20.20;99.90
12408;DHT22;6268;48.188;17.134;2023-07-28T03:32:38;19.90;99.90
12408;DHT22;6268;48.188;17.134;2023-07-28T03:35:07;19.90;99.90
12408;DHT22;6268;48.188;17.134;2023-07-28T03:37:37;19.90;99.90
12408;DHT22;6268;48.188;17.134;2023-07-28T03:40:06;20.00;99.90
12408;DHT22;6268;48.188;17.134;2023-07-28T03:42:36;20.00;99.90
12408;DHT22;6268;48.188;17.134;2023-07-28T03:45:58;20.00;99.90
12408;DHT22;6268;48.188;17.134;2023-07-28T03:48:27;20.00;99.90
12408;DHT22;6268;48.188;17.134;2023-07-28T03:50:56;20.00;99.90
12408;DHT22;6268;48.188;17.134;2023-07-28T03:53:25;19.90;99.90
12408;DHT22;6268;48.188;17.134;2023-07-28T03:55:53;19.90;99.90
12408;DHT22;6268;48.188;17.134;2023-07-28T03:58:25;19.90;99.90
12408;DHT22;6268;48.188;17.134;2023-07-28T04:00:54;19.90;99.90
12408;DHT22;6268;48.188;17.134;2023-07-28T04:03:24;20.00;99.90
12408;DHT22;6268;48.188;17.134;2023-07-28T04:05:53;20.10;99.90
12408;DHT22;6268;48.188;17.134;2023-07-28T04:08:22;20.20;99.90
12408;DHT22;6268;48.188;17.134;2023-07-28T04:10:50;20.30;99.90
12408;DHT22;6268;48.188;17.134;2023-07-28T04:13:19;20.20;99.90
12408;DHT22;6268;48.188;17.134;2023-07-28T04:15:47;20.10;99.90
12408;DHT22;6268;48.188;17.134;2023-07-28T04:18:16;20.30;99.90
12408;DHT22;6268;48.188;17.134;2023-07-28T04:20:46;20.30;99.90
12408;DHT22;6268;48.188;17.134;2023-07-28T04:23:15;20.30;99.90
12408;DHT22;6268;48.188;17.134;2023-07-28T04:25:44;20.50;99.90
12408;DHT22;6268;48.188;17.134;2023-07-28T04:28:13;20.40;99.90
12408;DHT22;6268;48.188;17.134;2023-07-28T04:30:41;20.40;99.90
12408;DHT22;6268;48.188;17.134;2023-07-28T04:33:10;20.50;99.90
12408;DHT22;6268;48.188;17.134;2023-07-28T04:35:39;20.40;99.90
12408;DHT22;6268;48.188;17.134;2023-07-28T04:38:09;20.30;99.90
12408;DHT22;6268;48.188;17.134;2023-07-28T04:40:37;20.20;99.90
12408;DHT22;6268;48.188;17.134;2023-07-28T04:43:06;20.20;99.90
12408;DHT22;6268;48.188;17.134;2023-07-28T04:45:35;20.20;99.90
12408;DHT22;6268;48.188;17.134;2023-07-28T04:48:04;20.00;99.90
12408;DHT22;6268;48.188;17.134;2023-07-28T04:50:33;20.10;99.90
12408;DHT22;6268;48.188;17.134;2023-07-28T04:53:02;20.10;99.90
12408;DHT22;6268;48.188;17.134;2023-07-28T04:55:32;20.00;99.90
12408;DHT22;6268;48.188;17.134;2023-07-28T04:58:01;20.10;99.90
12408;DHT22;6268;48.188;17.134;2023-07-28T05:00:30;20.30;99.90
12408;DHT22;6268;48.188;17.134;2023-07-28T05:02:58;20.30;99.90
12408;DHT22;6268;48.188;17.134;2023-07-28T05:05:29;20.30;99.90
12408;DHT22;6268;48.188;17.134;2023-07-28T05:07:58;20.20;99.90
12408;DHT22;6268;48.188;17.134;2023-07-28T05:10:27;20.20;99.90
12408;DHT22;6268;48.188;17.134;2023-07-28T05:12:57;20.20;99.90
12408;DHT22;6268;48.188;17.134;2023-07-28T05:15:26;20.30;99.90
12408;DHT22;6268;48.188;17.134;2023-07-28T05:17:55;20.20;99.90
12408;DHT22;6268;48.188;17.134;2023-07-28T05:20:24;20.10;99.90
12408;DHT22;6268;48.188;17.134;2023-07-28T05:22:53;20.10;99.90
12408;DHT22;6268;48.188;17.134;2023-07-28T05:25:21;20.20;99.90
12408;DHT22;6268;48.188;17.134;2023-07-28T05:27:50;20.20;99.90
12408;DHT22;6268;48.188;17.134;2023-07-28T05:30:21;20.30;99.90
12408;DHT22;6268;48.188;17.134;2023-07-28T05:32:54;20.30;99.90
12408;DHT22;6268;48.188;17.134;2023-07-28T05:35:23;20.20;99.90
12408;DHT22;6268;48.188;17.134;2023-07-28T05:37:53;20.10;99.90
12408;DHT22;6268;48.188;17.134;2023-07-28T05:40:21;20.20;99.90
12408;DHT22;6268;48.188;17.134;2023-07-28T05:42:50;20.10;99.90
12408;DHT22;6268;48.188;17.134;2023-07-28T05:45:20;20.00;99.90
12408;DHT22;6268;48.188;17.134;2023-07-28T05:47:49;20.00;99.90
12408;DHT22;6268;48.188;17.134;2023-07-28T05:50:18;20.00;99.90
12408;DHT22;6268;48.188;17.134;2023-07-28T05:52:47;20.10;99.90
12408;DHT22;6268;48.188;17.134;2023-07-28T05:55:16;20.20;99.90
12408;DHT22;6268;48.188;17.134;2023-07-28T05:57:45;20.20;99.90
12408;DHT22;6268;48.188;17.134;2023-07-28T06:00:14;20.40;99.90
12408;DHT22;6268;48.188;17.134;2023-07-28T06:02:45;20.40;99.90
12408;DHT22;6268;48.188;17.134;2023-07-28T06:05:14;20.20;99.90
12408;DHT22;6268;48.188;17.134;2023-07-28T06:07:43;20.20;99.90
12408;DHT22;6268;48.188;17.134;2023-07-28T06:10:11;20.10;99.90
12408;DHT22;6268;48.188;17.134;2023-07-28T06:12:40;20.10;99.90
12408;DHT22;6268;48.188;17.134;2023-07-28T06:15:10;20.20;99.90
12408;DHT22;6268;48.188;17.134;2023-07-28T06:17:38;20.30;99.90
12408;DHT22;6268;48.188;17.134;2023-07-28T06:20:09;20.30;99.90
12408;DHT22;6268;48.188;17.134;2023-07-28T06:22:39;20.40;99.90
12408;DHT22;6268;48.188;17.134;2023-07-28T06:25:07;20.40;99.90
12408;DHT22;6268;48.188;17.134;2023-07-28T06:27:36;20.40;99.90
12408;DHT22;6268;48.188;17.134;2023-07-28T06:30:06;20.50;99.90
12408;DHT22;6268;48.188;17.134;2023-07-28T06:32:36;20.80;99.90
12408;DHT22;6268;48.188;17.134;2023-07-28T06:35:07;21.00;99.90
12408;DHT22;6268;48.188;17.134;2023-07-28T06:37:37;21.40;99.90
12408;DHT22;6268;48.188;17.134;2023-07-28T06:40:07;21.90;99.90
12408;DHT22;6268;48.188;17.134;2023-07-28T06:42:37;22.60;99.90
12408;DHT22;6268;48.188;17.134;2023-07-28T06:45:06;22.90;99.90
12408;DHT22;6268;48.188;17.134;2023-07-28T06:47:35;22.80;99.90
12408;DHT22;6268;48.188;17.134;2023-07-28T06:50:04;22.40;99.90
12408;DHT22;6268;48.188;17.134;2023-07-28T06:52:35;22.80;99.90
12408;DHT22;6268;48.188;17.134;2023-07-28T06:55:04;23.00;99.90
12408;DHT22;6268;48.188;17.134;2023-07-28T06:57:33;22.80;99.90
12408;DHT22;6268;48.188;17.134;2023-07-28T07:00:06;22.70;99.90
12408;DHT22;6268;48.188;17.134;2023-07-28T07:02:36;22.60;99.90
12408;DHT22;6268;48.188;17.134;2023-07-28T07:05:05;22.40;99.90
12408;DHT22;6268;48.188;17.134;2023-07-28T07:07:36;22.20;99.90
12408;DHT22;6268;48.188;17.134;2023-07-28T07:10:06;23.10;99.90
12408;DHT22;6268;48.188;17.134;2023-07-28T07:12:36;24.40;99.90
12408;DHT22;6268;48.188;17.134;2023-07-28T07:15:06;25.30;99.90
12408;DHT22;6268;48.188;17.134;2023-07-28T07:17:35;26.00;99.90
12408;DHT22;6268;48.188;17.134;2023-07-28T07:20:05;26.70;99.90
12408;DHT22;6268;48.188;17.134;2023-07-28T07:22:36;27.20;99.60
12408;DHT22;6268;48.188;17.134;2023-07-28T07:25:05;27.20;96.70
12408;DHT22;6268;48.188;17.134;2023-07-28T07:27:35;27.70;95.00
12408;DHT22;6268;48.188;17.134;2023-07-28T07:30:04;28.40;92.10
12408;DHT22;6268;48.188;17.134;2023-07-28T07:32:34;28.90;89.50
12408;DHT22;6268;48.188;17.134;2023-07-28T07:35:04;29.50;85.90
12408;DHT22;6268;48.188;17.134;2023-07-28T07:37:33;30.10;82.30
12408;DHT22;6268;48.188;17.134;2023-07-28T07:40:04;30.40;77.90
12408;DHT22;6268;48.188;17.134;2023-07-28T07:42:41;30.40;74.70
12408;DHT22;6268;48.188;17.134;2023-07-28T07:45:11;30.50;72.40
12408;DHT22;6268;48.188;17.134;2023-07-28T07:47:41;30.40;72.30
12408;DHT22;6268;48.188;17.134;2023-07-28T07:50:11;30.80;70.10
12408;DHT22;6268;48.188;17.134;2023-07-28T07:52:40;30.80;69.00
12408;DHT22;6268;48.188;17.134;2023-07-28T07:56:05;30.60;68.80
12408;DHT22;6268;48.188;17.134;2023-07-28T07:58:35;30.90;67.80
12408;DHT22;6268;48.188;17.134;2023-07-28T08:01:04;31.20;65.30
12408;DHT22;6268;48.188;17.134;2023-07-28T08:03:33;31.40;64.60
12408;DHT22;6268;48.188;17.134;2023-07-28T08:06:03;31.40;64.20
12408;DHT22;6268;48.188;17.134;2023-07-28T08:08:32;31.60;64.00
12408;DHT22;6268;48.188;17.134;2023-07-28T08:11:00;31.70;63.00
12408;DHT22;6268;48.188;17.134;2023-07-28T08:13:31;31.80;62.90
12408;DHT22;6268;48.188;17.134;2023-07-28T08:16:00;31.90;63.00
12408;DHT22;6268;48.188;17.134;2023-07-28T08:18:29;32.00;62.00
12408;DHT22;6268;48.188;17.134;2023-07-28T08:21:51;32.10;61.70
12408;DHT22;6268;48.188;17.134;2023-07-28T08:24:20;32.50;60.80
12408;DHT22;6268;48.188;17.134;2023-07-28T08:27:21;32.70;60.00
12408;DHT22;6268;48.188;17.134;2023-07-28T08:30:44;33.00;59.20
12408;DHT22;6268;48.188;17.134;2023-07-28T08:34:05;33.20;58.70
12408;DHT22;6268;48.188;17.134;2023-07-28T08:36:58;32.80;59.10
12408;DHT22;6268;48.188;17.134;2023-07-28T08:40:19;33.00;58.50
12408;DHT22;6268;48.188;17.134;2023-07-28T08:43:41;33.30;58.20
12408;DHT22;6268;48.188;17.134;2023-07-28T08:46:12;32.60;58.90
12408;DHT22;6268;48.188;17.134;2023-07-28T08:49:02;32.50;59.30
12408;DHT22;6268;48.188;17.134;2023-07-28T08:52:17;32.10;60.50
12408;DHT22;6268;48.188;17.134;2023-07-28T08:55:37;32.30;60.40
12408;DHT22;6268;48.188;17.134;2023-07-28T08:58:57;32.00;58.80
12408;DHT22;6268;48.188;17.134;2023-07-28T09:01:55;32.20;58.40
12408;DHT22;6268;48.188;17.134;2023-07-28T09:04:31;32.20;58.10
12408;DHT22;6268;48.188;17.134;2023-07-28T09:07:04;32.30;58.60
12408;DHT22;6268;48.188;17.134;2023-07-28T09:10:39;32.50;58.00
12408;DHT22;6268;48.188;17.134;2023-07-28T09:13:36;32.40;58.30
12408;DHT22;6268;48.188;17.134;2023-07-28T09:17:08;32.50;58.40
12408;DHT22;6268;48.188;17.134;2023-07-28T09:20:34;32.90;58.30
12408;DHT22;6268;48.188;17.134;2023-07-28T09:23:55;32.60;58.10
12408;DHT22;6268;48.188;17.134;2023-07-28T09:27:21;32.50;58.00
12408;DHT22;6268;48.188;17.134;2023-07-28T09:30:45;32.90;57.70
12408;DHT22;6268;48.188;17.134;2023-07-28T09:33:43;33.50;56.70
12408;DHT22;6268;48.188;17.134;2023-07-28T09:37:05;33.40;56.60
12408;DHT22;6268;48.188;17.134;2023-07-28T09:40:28;33.10;56.80
12408;DHT22;6268;48.188;17.134;2023-07-28T09:43:50;32.90;57.20
12408;DHT22;6268;48.188;17.134;2023-07-28T09:47:11;33.00;56.90
12408;DHT22;6268;48.188;17.134;2023-07-28T09:50:38;33.20;56.50
12408;DHT22;6268;48.188;17.134;2023-07-28T09:54:04;33.10;56.70
12408;DHT22;6268;48.188;17.134;2023-07-28T09:57:28;32.80;56.70
12408;DHT22;6268;48.188;17.134;2023-07-28T10:00:50;32.60;57.20
12408;DHT22;6268;48.188;17.134;2023-07-28T10:04:14;32.70;56.90
12408;DHT22;6268;48.188;17.134;2023-07-28T10:07:40;33.00;54.80
12408;DHT22;6268;48.188;17.134;2023-07-28T10:11:02;33.20;54.10
12408;DHT22;6268;48.188;17.134;2023-07-28T10:14:28;33.70;53.40
12408;DHT22;6268;48.188;17.134;2023-07-28T10:17:56;33.70;53.90
12408;DHT22;6268;48.188;17.134;2023-07-28T10:21:21;33.40;53.20
12408;DHT22;6268;48.188;17.134;2023-07-28T10:24:54;33.00;54.00
12408;DHT22;6268;48.188;17.134;2023-07-28T10:28:28;32.90;54.70
12408;DHT22;6268;48.188;17.134;2023-07-28T10:31:51;33.20;53.80
12408;DHT22;6268;48.188;17.134;2023-07-28T10:35:23;33.00;54.00
12408;DHT22;6268;48.188;17.134;2023-07-28T10:38:46;32.70;54.60
12408;DHT22;6268;48.188;17.134;2023-07-28T10:42:09;32.70;54.90
12408;DHT22;6268;48.188;17.134;2023-07-28T10:45:12;32.60;55.00
12408;DHT22;6268;48.188;17.134;2023-07-28T10:48:35;32.60;55.10
12408;DHT22;6268;48.188;17.134;2023-07-28T10:51:57;33.00;55.30
12408;DHT22;6268;48.188;17.134;2023-07-28T10:55:19;33.00;55.00
12408;DHT22;6268;48.188;17.134;2023-07-28T10:58:42;32.70;54.00
12408;DHT22;6268;48.188;17.134;2023-07-28T11:02:04;32.80;53.90
12408;DHT22;6268;48.188;17.134;2023-07-28T11:05:27;32.70;54.30
12408;DHT22;6268;48.188;17.134;2023-07-28T11:08:50;32.50;55.00
12408;DHT22;6268;48.188;17.134;2023-07-28T11:12:11;32.40;54.60
12408;DHT22;6268;48.188;17.134;2023-07-28T11:15:55;32.10;55.40
12408;DHT22;6268;48.188;17.134;2023-07-28T11:19:19;32.00;55.30
12408;DHT22;6268;48.188;17.134;2023-07-28T11:22:45;32.30;55.20
12408;DHT22;6268;48.188;17.134;2023-07-28T11:26:07;32.10;55.40
12408;DHT22;6268;48.188;17.134;2023-07-28T11:29:15;32.00;54.50
12408;DHT22;6268;48.188;17.134;2023-07-28T11:32:39;31.70;54.50
12408;DHT22;6268;48.188;17.134;2023-07-28T11:36:04;31.70;54.90
12408;DHT22;6268;48.188;17.134;2023-07-28T11:39:26;31.70;54.90
12408;DHT22;6268;48.188;17.134;2023-07-28T11:42:51;31.50;55.90
12408;DHT22;6268;48.188;17.134;2023-07-28T11:46:34;31.10;55.60
12408;DHT22;6268;48.188;17.134;2023-07-28T11:49:57;31.30;56.10
12408;DHT22;6268;48.188;17.134;2023-07-28T11:53:20;31.20;55.90
12408;DHT22;6268;48.188;17.134;2023-07-28T11:56:45;31.00;56.70
12408;DHT22;6268;48.188;17.134;2023-07-28T12:00:08;30.90;57.30
12408;DHT22;6268;48.188;17.134;2023-07-28T12:03:35;30.90;57.70
12408;DHT22;6268;48.188;17.134;2023-07-28T12:06:21;30.90;57.30
12408;DHT22;6268;48.188;17.134;2023-07-28T12:09:48;30.80;57.80
12408;DHT22;6268;48.188;17.134;2023-07-28T12:13:25;30.50;58.20
12408;DHT22;6268;48.188;17.134;2023-07-28T12:17:01;30.50;58.70
12408;DHT22;6268;48.188;17.134;2023-07-28T12:20:36;30.40;58.80
12408;DHT22;6268;48.188;17.134;2023-07-28T12:23:59;30.40;59.10
12408;DHT22;6268;48.188;17.134;2023-07-28T12:27:21;30.30;59.60
12408;DHT22;6268;48.188;17.134;2023-07-28T12:30:46;30.50;59.80
12408;DHT22;6268;48.188;17.134;2023-07-28T12:34:10;30.30;60.20
12408;DHT22;6268;48.188;17.134;2023-07-28T12:37:12;30.30;60.60
12408;DHT22;6268;48.188;17.134;2023-07-28T12:40:37;30.30;60.10
12408;DHT22;6268;48.188;17.134;2023-07-28T12:43:20;30.10;59.90
12408;DHT22;6268;48.188;17.134;2023-07-28T12:46:43;30.00;60.20
12408;DHT22;6268;48.188;17.134;2023-07-28T12:50:05;30.10;61.40
12408;DHT22;6268;48.188;17.134;2023-07-28T12:53:31;29.90;60.50
12408;DHT22;6268;48.188;17.134;2023-07-28T12:56:53;29.90;60.60
12408;DHT22;6268;48.188;17.134;2023-07-28T13:00:15;30.10;60.30
12408;DHT22;6268;48.188;17.134;2023-07-28T13:03:39;30.30;59.80
12408;DHT22;6268;48.188;17.134;2023-07-28T13:07:00;30.30;60.90
12408;DHT22;6268;48.188;17.134;2023-07-28T13:10:25;30.20;60.80
12408;DHT22;6268;48.188;17.134;2023-07-28T13:12:57;30.10;59.50
12408;DHT22;6268;48.188;17.134;2023-07-28T13:16:05;30.00;59.90
12408;DHT22;6268;48.188;17.134;2023-07-28T13:19:27;30.10;60.10
12408;DHT22;6268;48.188;17.134;2023-07-28T13:22:48;30.00;60.10
12408;DHT22;6268;48.188;17.134;2023-07-28T13:26:10;30.00;60.60
12408;DHT22;6268;48.188;17.134;2023-07-28T13:29:32;30.10;60.60
12408;DHT22;6268;48.188;17.134;2023-07-28T13:32:56;30.10;61.40
12408;DHT22;6268;48.188;17.134;2023-07-28T13:36:17;29.80;61.80
12408;DHT22;6268;48.188;17.134;2023-07-28T13:39:38;29.30;69.20
12408;DHT22;6268;48.188;17.134;2023-07-28T13:43:05;29.20;68.80
12408;DHT22;6268;48.188;17.134;2023-07-28T13:46:29;28.90;72.10
12408;DHT22;6268;48.188;17.134;2023-07-28T13:49:50;28.60;75.90
12408;DHT22;6268;48.188;17.134;2023-07-28T13:53:22;28.60;77.50
12408;DHT22;6268;48.188;17.134;2023-07-28T13:56:47;28.50;79.40
12408;DHT22;6268;48.188;17.134;2023-07-28T14:00:11;28.60;79.10
12408;DHT22;6268;48.188;17.134;2023-07-28T14:03:33;28.50;80.10
12408;DHT22;6268;48.188;17.134;2023-07-28T14:06:58;28.60;85.70
12408;DHT22;6268;48.188;17.134;2023-07-28T14:10:19;28.20;90.60
12408;DHT22;6268;48.188;17.134;2023-07-28T14:13:40;28.20;93.00
12408;DHT22;6268;48.188;17.134;2023-07-28T14:17:03;28.20;93.00
12408;DHT22;6268;48.188;17.134;2023-07-28T14:20:24;28.10;94.00
12408;DHT22;6268;48.188;17.134;2023-07-28T14:23:46;28.00;95.60
12408;DHT22;6268;48.188;17.134;2023-07-28T14:27:07;28.20;95.20
12408;DHT22;6268;48.188;17.134;2023-07-28T14:30:28;28.20;94.60
12408;DHT22;6268;48.188;17.134;2023-07-28T14:33:51;28.30;93.90
12408;DHT22;6268;48.188;17.134;2023-07-28T14:37:12;28.30;93.10
12408;DHT22;6268;48.188;17.134;2023-07-28T14:40:33;28.50;92.70
12408;DHT22;6268;48.188;17.134;2023-07-28T14:43:55;28.50;91.50
12408;DHT22;6268;48.188;17.134;2023-07-28T14:47:16;28.40;91.30
12408;DHT22;6268;48.188;17.134;2023-07-28T14:50:38;28.50;90.10
12408;DHT22;6268;48.188;17.134;2023-07-28T14:54:00;28.30;88.00
12408;DHT22;6268;48.188;17.134;2023-07-28T14:57:21;28.40;88.20
12408;DHT22;6268;48.188;17.134;2023-07-28T15:00:42;28.60;87.30
12408;DHT22;6268;48.188;17.134;2023-07-28T15:04:04;28.60;84.60
12408;DHT22;6268;48.188;17.134;2023-07-28T15:07:27;28.70;84.00
12408;DHT22;6268;48.188;17.134;2023-07-28T15:10:48;28.80;83.20
12408;DHT22;6268;48.188;17.134;2023-07-28T15:14:09;28.80;82.80
12408;DHT22;6268;48.188;17.134;2023-07-28T15:17:30;28.80;82.20
12408;DHT22;6268;48.188;17.134;2023-07-28T15:20:52;28.80;82.80
12408;DHT22;6268;48.188;17.134;2023-07-28T15:24:14;28.80;82.20
12408;DHT22;6268;48.188;17.134;2023-07-28T15:27:36;28.70;81.10
12408;DHT22;6268;48.188;17.134;2023-07-28T15:30:57;28.80;80.60
12408;DHT22;6268;48.188;17.134;2023-07-28T15:34:20;28.60;77.90
12408;DHT22;6268;48.188;17.134;2023-07-28T15:37:42;28.60;77.10
12408;DHT22;6268;48.188;17.134;2023-07-28T15:41:05;28.50;74.60
12408;DHT22;6268;48.188;17.134;2023-07-28T15:44:26;28.40;74.50
12408;DHT22;6268;48.188;17.134;2023-07-28T15:47:47;28.50;74.20
12408;DHT22;6268;48.188;17.134;2023-07-28T15:51:11;28.50;74.00
12408;DHT22;6268;48.188;17.134;2023-07-28T15:54:32;28.50;73.70
12408;DHT22;6268;48.188;17.134;2023-07-28T15:57:55;28.50;74.00
12408;DHT22;6268;48.188;17.134;2023-07-28T16:01:16;28.50;73.40
12408;DHT22;6268;48.188;17.134;2023-07-28T16:04:37;28.50;73.60
12408;DHT22;6268;48.188;17.134;2023-07-28T16:07:58;28.40;73.50
12408;DHT22;6268;48.188;17.134;2023-07-28T16:11:37;28.40;73.70
12408;DHT22;6268;48.188;17.134;2023-07-28T16:14:59;28.10;74.60
12408;DHT22;6268;48.188;17.134;2023-07-28T16:18:16;28.10;74.40
12408;DHT22;6268;48.188;17.134;2023-07-28T16:21:37;28.10;74.60
12408;DHT22;6268;48.188;17.134;2023-07-28T16:24:58;28.20;74.70
12408;DHT22;6268;48.188;17.134;2023-07-28T16:28:19;28.30;74.60
12408;DHT22;6268;48.188;17.134;2023-07-28T16:31:42;28.30;74.90
12408;DHT22;6268;48.188;17.134;2023-07-28T16:35:04;28.30;74.80
12408;DHT22;6268;48.188;17.134;2023-07-28T16:38:25;28.10;75.60
12408;DHT22;6268;48.188;17.134;2023-07-28T16:41:46;28.10;75.60
12408;DHT22;6268;48.188;17.134;2023-07-28T16:45:08;28.10;76.50
12408;DHT22;6268;48.188;17.134;2023-07-28T16:48:30;28.10;76.40
12408;DHT22;6268;48.188;17.134;2023-07-28T16:51:53;28.10;76.20
12408;DHT22;6268;48.188;17.134;2023-07-28T16:55:14;28.10;76.50
12408;DHT22;6268;48.188;17.134;2023-07-28T16:58:35;28.10;76.30
12408;DHT22;6268;48.188;17.134;2023-07-28T17:01:56;28.00;77.00
12408;DHT22;6268;48.188;17.134;2023-07-28T17:05:19;28.00;77.30
12408;DHT22;6268;48.188;17.134;2023-07-28T17:08:41;27.90;77.90
12408;DHT22;6268;48.188;17.134;2023-07-28T17:12:03;27.90;78.20
12408;DHT22;6268;48.188;17.134;2023-07-28T17:15:24;27.80;79.50
12408;DHT22;6268;48.188;17.134;2023-07-28T17:18:45;27.70;81.00
12408;DHT22;6268;48.188;17.134;2023-07-28T17:22:08;27.60;81.40
12408;DHT22;6268;48.188;17.134;2023-07-28T17:25:30;27.60;82.00
12408;DHT22;6268;48.188;17.134;2023-07-28T17:28:51;27.50;82.40
12408;DHT22;6268;48.188;17.134;2023-07-28T17:32:13;27.40;83.10
12408;DHT22;6268;48.188;17.134;2023-07-28T17:35:34;27.30;83.60
12408;DHT22;6268;48.188;17.134;2023-07-28T17:38:57;27.20;83.80
12408;DHT22;6268;48.188;17.134;2023-07-28T17:42:20;27.20;84.30
12408;DHT22;6268;48.188;17.134;2023-07-28T17:45:41;27.10;84.70
12408;DHT22;6268;48.188;17.134;2023-07-28T17:49:03;27.10;85.20
12408;DHT22;6268;48.188;17.134;2023-07-28T17:52:24;26.90;85.90
12408;DHT22;6268;48.188;17.134;2023-07-28T17:55:47;26.90;89.30
12408;DHT22;6268;48.188;17.134;2023-07-28T17:59:08;26.80;90.90
12408;DHT22;6268;48.188;17.134;2023-07-28T18:02:33;26.70;92.00
12408;DHT22;6268;48.188;17.134;2023-07-28T18:05:54;26.60;93.00
12408;DHT22;6268;48.188;17.134;2023-07-28T18:09:15;26.50;94.00
12408;DHT22;6268;48.188;17.134;2023-07-28T18:12:40;26.50;94.90
12408;DHT22;6268;48.188;17.134;2023-07-28T18:16:02;26.40;96.10